CVH2 weather

Vermilion Health Centre Heliport
Vermilion, Alberta, Canada

Public forecast

Using degrees Celsius for public forecast. Weather courtesy of forecast.io.

Closest aviation weather report (METAR) to Vermilion Health Centre Heliport

Closest report is Lloydminster Airport, 28.8 nm (53.3 km) E. Retrieved 2020/04/03 07:00 UTC (55 minutes ago):

CYLL 030700Z AUTO 23007KT 6SM HZ CLR M19/M23 A3024 RMK SLP307

Closest aviation forecast (TAF) to Vermilion Health Centre Heliport

Closest forecast is Lloydminster Airport, 28.8 nm (53.3 km) E. Retrieved 2020/04/03 06:54 UTC (1 hour ago):

TAF TAF CYLL 030550Z 0306/0318 23006KT P6SM SKC TEMPO 0312/0315 5SM IC HZ BECMG 0312/0314 18005KT FM031600 14007KT P6SM FEW200 RMK FCST BASED ON AUTO OBS NXT FCST BY 031200Z